TimeEDT,TemperatureF,Dew PointF,Humidity,Sea Level PressureIn,VisibilityMPH,Wind Direction,Wind SpeedMPH,Gust SpeedMPH,PrecipitationIn,Events,Conditions,WindDirDegrees,DateUTC
12:14 AM,60.8,52.3,74,30.03,7.0,SSW,4.6,-,0.02,,Overcast,200,2012-10-14 04:14:00
12:33 AM,59.2,53.8,82,30.02,10.0,SSW,3.5,-,0.03,,Overcast,210,2012-10-14 04:33:00
1:14 AM,58.5,54.5,87,30.01,10.0,SSE,3.5,-,N/A,,Overcast,160,2012-10-14 05:14:00
1:33 AM,59.2,54.1,83,30.01,10.0,Calm,Calm,-,N/A,,Overcast,0,2012-10-14 05:33:00
1:54 AM,59.2,54.5,84,30.02,7.0,WSW,3.5,-,0.04,,Overcast,240,2012-10-14 05:54:00
2:14 AM,58.5,55.9,91,30.01,7.0,Calm,Calm,-,0.02,,Overcast,0,2012-10-14 06:14:00
2:33 AM,59.7,55.0,84,30.01,10.0,Calm,Calm,-,0.02,,Overcast,0,2012-10-14 06:33:00
2:53 AM,60.6,54.5,80,30.00,10.0,Calm,Calm,-,0.02,,Overcast,0,2012-10-14 06:53:00
3:14 AM,60.4,54.0,79,30.00,10.0,Calm,Calm,-,N/A,,Mostly Cloudy,0,2012-10-14 07:14:00
3:33 AM,60.8,54.0,78,29.99,10.0,South,3.5,-,N/A,,Overcast,190,2012-10-14 07:33:00
3:54 AM,61.0,53.6,77,29.99,10.0,SSW,4.6,-,N/A,,Scattered Clouds,210,2012-10-14 07:54:00
4:14 AM,61.2,53.6,76,29.99,10.0,SSW,3.5,-,N/A,,Scattered Clouds,200,2012-10-14 08:14:00
4:33 AM,61.2,53.6,76,29.99,10.0,SSW,5.8,-,N/A,,Scattered Clouds,210,2012-10-14 08:33:00
4:54 AM,61.2,53.6,76,29.99,10.0,SSW,5.8,-,N/A,,Clear,200,2012-10-14 08:54:00
5:14 AM,61.2,53.8,77,29.99,10.0,SSW,5.8,-,N/A,,Scattered Clouds,200,2012-10-14 09:14:00
5:33 AM,61.3,54.0,77,29.99,10.0,SSW,5.8,-,N/A,,Mostly Cloudy,210,2012-10-14 09:33:00
5:54 AM,61.7,54.3,77,29.99,10.0,SSW,6.9,-,N/A,,Mostly Cloudy,210,2012-10-14 09:54:00
6:14 AM,61.7,54.1,76,29.99,10.0,SSW,8.1,-,N/A,,Overcast,210,2012-10-14 10:14:00
6:33 AM,61.7,54.5,77,29.99,10.0,SSW,8.1,-,N/A,,Overcast,200,2012-10-14 10:33:00
6:54 AM,61.7,54.5,77,29.99,10.0,SSW,5.8,-,N/A,,Overcast,210,2012-10-14 10:54:00
7:14 AM,61.9,54.5,77,29.99,10.0,SSW,6.9,-,N/A,,Overcast,210,2012-10-14 11:14:00
7:33 AM,61.7,54.5,77,29.99,10.0,SSW,6.9,-,N/A,,Overcast,210,2012-10-14 11:33:00
7:53 AM,61.7,54.5,77,29.99,10.0,SSW,5.8,-,N/A,,Scattered Clouds,210,2012-10-14 11:53:00
8:14 AM,61.9,54.5,77,29.99,10.0,SSW,4.6,-,N/A,,Scattered Clouds,200,2012-10-14 12:14:00
8:33 AM,61.9,54.5,77,29.99,10.0,SSW,9.2,-,N/A,,Scattered Clouds,210,2012-10-14 12:33:00
8:54 AM,62.2,54.5,76,29.98,10.0,SSW,8.1,19.6,N/A,,Mostly Cloudy,200,2012-10-14 12:54:00
9:14 AM,62.6,54.5,75,29.99,10.0,SSW,11.5,19.6,N/A,,Overcast,210,2012-10-14 13:14:00
9:33 AM,63.1,54.7,74,29.98,10.0,SSW,5.8,-,N/A,,Overcast,210,2012-10-14 13:33:00
9:54 AM,64.0,54.9,72,29.97,10.0,SSW,8.1,19.6,N/A,,Overcast,200,2012-10-14 13:54:00
10:14 AM,65.3,54.7,68,29.97,10.0,SSW,10.4,20.7,N/A,,Mostly Cloudy,200,2012-10-14 14:14:00
10:33 AM,66.0,54.7,67,29.96,10.0,SW,9.2,24.2,N/A,,Scattered Clouds,220,2012-10-14 14:33:00
10:54 AM,66.2,54.9,67,29.95,10.0,SSW,8.1,24.2,N/A,,Clear,210,2012-10-14 14:54:00
11:14 AM,66.6,55.4,67,29.94,10.0,SSW,6.9,25.3,N/A,,Scattered Clouds,210,2012-10-14 15:14:00
11:33 AM,67.3,55.2,65,29.93,10.0,South,9.2,18.4,N/A,,Scattered Clouds,180,2012-10-14 15:33:00
11:54 AM,67.3,54.7,64,29.93,10.0,SSW,13.8,20.7,N/A,,Mostly Cloudy,210,2012-10-14 15:54:00
12:14 PM,68.2,54.9,62,29.92,10.0,South,10.4,18.4,N/A,,Mostly Cloudy,180,2012-10-14 16:14:00
12:33 PM,68.0,54.5,62,29.91,10.0,SW,8.1,23.0,N/A,,Mostly Cloudy,220,2012-10-14 16:33:00
12:54 PM,68.0,54.5,62,29.89,10.0,South,9.2,20.7,N/A,,Scattered Clouds,190,2012-10-14 16:54:00
1:14 PM,70.0,54.7,58,29.88,10.0,SSW,8.1,19.6,N/A,,Scattered Clouds,210,2012-10-14 17:14:00
1:34 PM,69.8,54.3,58,29.86,10.0,South,5.8,-,N/A,,Clear,190,2012-10-14 17:34:00
1:54 PM,69.8,54.1,57,29.84,10.0,SSW,5.8,17.3,N/A,,Clear,200,2012-10-14 17:54:00
2:14 PM,70.7,54.1,56,29.83,10.0,SW,11.5,20.7,N/A,,Clear,220,2012-10-14 18:14:00
2:34 PM,71.4,53.6,53,29.82,10.0,SSW,12.7,24.2,N/A,,Clear,210,2012-10-14 18:34:00
2:53 PM,72.7,53.8,51,29.80,10.0,South,11.5,21.9,N/A,,Clear,170,2012-10-14 18:53:00
3:14 PM,73.4,54.0,50,29.80,10.0,South,10.4,25.3,N/A,,Scattered Clouds,190,2012-10-14 19:14:00
3:33 PM,73.4,54.1,51,29.80,10.0,SSW,13.8,25.3,N/A,,Scattered Clouds,210,2012-10-14 19:33:00
4:14 PM,71.6,53.6,53,29.78,10.0,SSW,11.5,20.7,N/A,,Overcast,210,2012-10-14 20:14:00
4:34 PM,71.6,53.6,53,29.77,10.0,South,8.1,-,N/A,,Overcast,190,2012-10-14 20:34:00
4:53 PM,71.4,53.6,53,29.77,10.0,SSW,8.1,-,N/A,,Overcast,210,2012-10-14 20:53:00
5:14 PM,71.4,53.6,53,29.76,10.0,SW,11.5,25.3,N/A,,Overcast,220,2012-10-14 21:14:00
5:34 PM,70.3,54.5,57,29.77,10.0,SSW,12.7,19.6,N/A,,Overcast,210,2012-10-14 21:34:00
5:53 PM,68.0,56.1,66,29.76,10.0,SW,8.1,19.6,N/A,,Overcast,220,2012-10-14 21:53:00
6:14 PM,67.1,56.8,70,29.77,10.0,SW,6.9,-,N/A,,Overcast,230,2012-10-14 22:14:00
6:33 PM,65.3,58.1,77,29.75,10.0,South,5.8,-,N/A,,Overcast,190,2012-10-14 22:33:00
6:54 PM,65.3,57.7,76,29.75,10.0,SSW,6.9,-,N/A,,Overcast,210,2012-10-14 22:54:00
7:14 PM,63.3,59.2,86,29.73,7.0,South,5.8,-,0.01,,Overcast,190,2012-10-14 23:14:00
7:33 PM,62.8,59.9,90,29.72,10.0,South,5.8,-,0.01,,Overcast,170,2012-10-14 23:33:00
7:53 PM,62.6,59.9,91,29.71,10.0,SSE,4.6,-,0.01,,Overcast,150,2012-10-14 23:53:00
8:14 PM,63.7,58.3,83,29.70,10.0,South,5.8,-,N/A,,Mostly Cloudy,180,2012-10-15 00:14:00
8:34 PM,64.2,57.4,78,29.69,10.0,South,6.9,-,N/A,,Mostly Cloudy,180,2012-10-15 00:34:00
8:53 PM,65.3,56.3,73,29.68,10.0,South,5.8,-,N/A,,Mostly Cloudy,190,2012-10-15 00:53:00
9:14 PM,67.1,55.8,67,29.68,10.0,SSW,9.2,17.3,N/A,,Overcast,200,2012-10-15 01:14:00
9:33 PM,63.7,58.1,82,29.67,10.0,South,8.1,-,0.01,,Overcast,180,2012-10-15 01:33:00
9:54 PM,63.3,57.0,80,29.66,10.0,SSW,10.4,24.2,0.02,,Overcast,200,2012-10-15 01:54:00
10:14 PM,61.9,57.0,84,29.67,10.0,SW,15.0,24.2,N/A,,Overcast,220,2012-10-15 02:14:00
10:33 PM,61.7,58.3,89,29.66,10.0,SSW,6.9,-,N/A,,Overcast,210,2012-10-15 02:33:00
10:53 PM,62.6,57.4,83,29.66,10.0,SSW,8.1,18.4,N/A,,Scattered Clouds,210,2012-10-15 02:53:00
11:14 PM,62.4,57.4,84,29.65,10.0,SW,9.2,-,N/A,,Clear,220,2012-10-15 03:14:00
11:34 PM,63.0,57.6,82,29.65,10.0,SSW,9.2,-,N/A,,Mostly Cloudy,210,2012-10-15 03:34:00
11:53 PM,63.5,57.4,80,29.64,10.0,SSW,13.8,19.6,N/A,,Overcast,210,2012-10-15 03:53:00